createdAt,value
2018-12-10T00:01:28.793Z,7.15
2018-12-10T00:03:56.529Z,7.17
2018-12-10T00:06:24.303Z,7.28
2018-12-10T00:08:51.967Z,7.29
2018-12-10T00:11:19.653Z,7.27
2018-12-10T00:13:47.384Z,7.33
2018-12-10T00:16:14.753Z,7.40
2018-12-10T00:18:42.363Z,7.30
2018-12-10T00:21:10.059Z,7.14
2018-12-10T00:23:37.477Z,7.07
2018-12-10T00:26:05.189Z,6.99
2018-12-10T00:28:32.578Z,6.86
2018-12-10T00:31:00.261Z,6.78
2018-12-10T00:33:27.847Z,6.61
2018-12-10T00:35:55.227Z,6.54
2018-12-10T00:38:22.847Z,6.55
2018-12-10T00:40:50.563Z,6.52
2018-12-10T00:43:18.255Z,6.38
2018-12-10T00:45:45.843Z,6.20
2018-12-10T00:48:13.319Z,6.07
2018-12-10T00:50:40.819Z,5.97
2018-12-10T00:53:08.387Z,5.95
2018-12-10T00:55:35.965Z,5.87
2018-12-10T00:58:03.648Z,5.94
2018-12-10T01:00:31.344Z,6.04
2018-12-10T01:02:58.917Z,6.12
2018-12-10T01:05:26.380Z,6.14
2018-12-10T01:07:54.044Z,6.13
2018-12-10T01:10:21.436Z,6.16
2018-12-10T01:12:49.123Z,6.09
2018-12-10T01:15:16.868Z,6.01
2018-12-10T01:17:44.427Z,6.01
2018-12-10T01:20:12.248Z,6.06
2018-12-10T01:22:40.052Z,6.26
2018-12-10T01:25:07.649Z,6.43
2018-12-10T01:27:35.336Z,6.49
2018-12-10T01:30:03.604Z,6.54
2018-12-10T01:32:31.354Z,6.66
2018-12-10T01:34:59.096Z,6.73
2018-12-10T01:37:27.440Z,6.91
2018-12-10T01:39:55.014Z,6.96
2018-12-10T01:42:22.698Z,6.86
2018-12-10T01:44:50.302Z,6.75
2018-12-10T01:47:17.957Z,6.67
2018-12-10T01:49:45.528Z,6.58
2018-12-10T01:52:12.882Z,6.43
2018-12-10T01:54:40.503Z,6.30
2018-12-10T01:57:08.036Z,6.02
2018-12-10T01:59:35.673Z,6.10
2018-12-10T02:02:03.491Z,6.02
2018-12-10T02:04:31.198Z,6.09
2018-12-10T02:06:58.933Z,5.97
2018-12-10T02:09:26.609Z,5.96
2018-12-10T02:11:54.051Z,5.81
2018-12-10T02:14:21.871Z,5.66
2018-12-10T02:16:49.249Z,5.61
2018-12-10T02:19:17.029Z,5.60
2018-12-10T02:21:44.641Z,5.63
2018-12-10T02:24:12.227Z,5.77
2018-12-10T02:26:40.103Z,6.00
2018-12-10T02:29:14.439Z,5.94
2018-12-10T02:31:43.011Z,5.92
2018-12-10T02:34:10.632Z,5.99
2018-12-10T02:36:38.505Z,6.14
2018-12-10T02:39:06.244Z,6.17
2018-12-10T02:41:33.945Z,6.25
2018-12-10T02:44:01.967Z,6.35
2018-12-10T02:46:29.692Z,6.45
2018-12-10T02:48:57.396Z,6.49
2018-12-10T02:51:25.257Z,6.46
2018-12-10T02:53:52.949Z,6.37
2018-12-10T02:56:20.578Z,6.28
2018-12-10T02:58:48.451Z,6.23
2018-12-10T03:01:16.016Z,6.22
2018-12-10T03:03:43.740Z,6.33
2018-12-10T03:06:11.409Z,6.31
2018-12-10T03:08:39.178Z,6.23
2018-12-10T03:11:06.785Z,6.00
2018-12-10T03:13:36.447Z,5.80
2018-12-10T03:16:04.295Z,5.67
2018-12-10T03:18:31.966Z,5.42
2018-12-10T03:20:59.355Z,5.13
2018-12-10T03:23:27.495Z,5.10
2018-12-10T03:25:54.819Z,5.01
2018-12-10T03:28:22.513Z,4.84
2018-12-10T03:30:50.054Z,4.73
2018-12-10T03:33:17.716Z,4.68
2018-12-10T03:35:45.133Z,4.57
2018-12-10T03:38:13.017Z,4.70
2018-12-10T03:40:40.728Z,4.63
2018-12-10T03:43:08.402Z,4.72
2018-12-10T03:45:35.733Z,4.58
2018-12-10T03:48:03.272Z,4.64
2018-12-10T03:50:30.624Z,4.66
2018-12-10T03:52:58.344Z,4.74
2018-12-10T03:55:25.652Z,4.78
2018-12-10T03:57:53.151Z,4.68
2018-12-10T04:00:20.804Z,4.72
2018-12-10T04:02:48.209Z,4.56
2018-12-10T04:05:16.031Z,4.54
2018-12-10T04:07:43.376Z,4.55
2018-12-10T04:10:11.041Z,4.50
2018-12-10T04:12:38.755Z,4.43
2018-12-10T04:15:06.605Z,4.36
2018-12-10T04:17:34.269Z,4.52
2018-12-10T04:20:02.299Z,4.35
2018-12-10T04:22:29.964Z,4.24
2018-12-10T04:24:57.532Z,4.19
2018-12-10T04:27:25.132Z,4.13
2018-12-10T04:29:52.752Z,4.44
2018-12-10T04:32:20.417Z,4.24
2018-12-10T04:34:48.132Z,4.14
2018-12-10T04:37:15.652Z,4.36
2018-12-10T04:39:43.524Z,4.28
2018-12-10T04:42:11.143Z,4.37
2018-12-10T04:44:38.460Z,4.41
2018-12-10T04:47:06.277Z,4.31
2018-12-10T04:49:33.858Z,4.22
2018-12-10T04:52:01.590Z,4.29
2018-12-10T04:54:29.356Z,4.27
2018-12-10T04:56:56.996Z,4.30
2018-12-10T04:59:24.644Z,4.39
2018-12-10T05:01:52.360Z,4.36
2018-12-10T05:04:20.185Z,4.36
2018-12-10T05:06:47.880Z,4.35
2018-12-10T05:09:15.672Z,4.36
2018-12-10T05:11:43.372Z,4.47
2018-12-10T05:14:11.020Z,4.49
2018-12-10T05:16:39.050Z,4.42
2018-12-10T05:19:06.536Z,4.32
2018-12-10T05:21:34.348Z,4.20
2018-12-10T05:24:01.974Z,4.28
2018-12-10T05:26:29.615Z,4.30
2018-12-10T05:28:57.421Z,4.20
2018-12-10T05:31:24.773Z,4.23
2018-12-10T05:33:52.625Z,4.36
2018-12-10T05:36:20.071Z,4.54
2018-12-10T05:38:47.512Z,4.71
2018-12-10T05:41:15.397Z,4.83
2018-12-10T05:43:42.952Z,4.98
2018-12-10T05:46:10.487Z,5.05
2018-12-10T05:48:38.089Z,5.11
2018-12-10T05:51:05.493Z,5.06
2018-12-10T05:53:33.059Z,5.13
2018-12-10T05:56:00.853Z,5.09
2018-12-10T05:58:28.655Z,5.00
2018-12-10T06:00:56.265Z,5.06
2018-12-10T06:03:23.985Z,5.15
2018-12-10T06:05:51.417Z,5.17
2018-12-10T06:08:19.201Z,5.14
2018-12-10T06:10:46.816Z,4.93
2018-12-10T06:13:14.243Z,5.11
2018-12-10T06:15:41.756Z,5.09
2018-12-10T06:18:09.199Z,5.03
2018-12-10T06:20:36.736Z,5.12
2018-12-10T06:23:04.498Z,5.11
2018-12-10T06:25:32.138Z,5.30
2018-12-10T06:28:00.001Z,5.40
2018-12-10T06:30:27.809Z,5.47
2018-12-10T06:32:55.670Z,5.49
2018-12-10T06:35:23.628Z,5.53
2018-12-10T06:37:51.372Z,5.60
2018-12-10T06:40:18.982Z,5.65
2018-12-10T06:42:46.885Z,5.56
2018-12-10T06:45:14.502Z,5.48
2018-12-10T06:47:42.166Z,5.46
2018-12-10T06:50:09.924Z,5.50
2018-12-10T06:52:37.641Z,5.53
2018-12-10T06:55:06.142Z,5.59
2018-12-10T06:57:33.694Z,5.60
2018-12-10T07:00:01.255Z,5.64
2018-12-10T07:02:29.157Z,5.62
2018-12-10T07:04:56.845Z,5.61
2018-12-10T07:07:24.470Z,5.59
2018-12-10T07:09:56.283Z,5.64
2018-12-10T07:12:23.922Z,5.71
2018-12-10T07:14:51.423Z,5.91
2018-12-10T07:17:19.319Z,5.97
2018-12-10T07:19:47.063Z,6.03
2018-12-10T07:22:14.764Z,6.16
2018-12-10T07:24:42.485Z,5.96
2018-12-10T07:27:10.020Z,5.87
2018-12-10T07:29:37.675Z,5.83
2018-12-10T07:32:05.273Z,5.84
2018-12-10T07:34:32.959Z,5.84
2018-12-10T07:37:00.751Z,5.85
2018-12-10T07:39:28.438Z,5.88
2018-12-10T07:41:55.801Z,5.91
2018-12-10T07:44:23.375Z,5.84
2018-12-10T07:46:50.811Z,5.74
2018-12-10T07:49:18.414Z,5.75
2018-12-10T07:51:46.103Z,5.85
2018-12-10T07:54:13.999Z,6.04
2018-12-10T07:56:41.628Z,5.96
2018-12-10T07:59:09.145Z,6.03
2018-12-10T08:01:39.769Z,6.06
2018-12-10T08:04:07.437Z,6.05
2018-12-10T08:06:35.100Z,5.99
2018-12-10T08:09:04.740Z,5.97
2018-12-10T08:11:32.474Z,6.00
2018-12-10T08:14:00.064Z,6.13
2018-12-10T08:16:27.812Z,6.30
2018-12-10T08:18:55.300Z,6.34
2018-12-10T08:21:23.032Z,6.30
2018-12-10T08:23:50.386Z,6.35
2018-12-10T08:26:17.874Z,6.51
2018-12-10T08:28:45.280Z,6.62
2018-12-10T08:31:12.896Z,6.66
2018-12-10T08:33:41.352Z,6.69
2018-12-10T08:36:09.062Z,6.73
2018-12-10T08:38:36.816Z,6.81
2018-12-10T08:41:04.730Z,6.89
2018-12-10T08:43:32.404Z,6.91
2018-12-10T08:45:59.787Z,7.21
2018-12-10T08:48:27.606Z,7.59
2018-12-10T08:50:54.932Z,7.56
2018-12-10T08:53:22.516Z,7.59
2018-12-10T08:55:50.087Z,7.59
2018-12-10T08:58:17.703Z,7.58
2018-12-10T09:00:45.499Z,7.52
2018-12-10T09:03:13.084Z,7.61
2018-12-10T09:05:40.846Z,7.43
2018-12-10T09:08:08.556Z,7.20
2018-12-10T09:10:35.969Z,7.14
2018-12-10T09:13:03.799Z,7.13
2018-12-10T09:15:31.300Z,7.23
2018-12-10T09:17:59.062Z,7.27
2018-12-10T09:20:26.527Z,7.24
2018-12-10T09:22:54.216Z,7.25
2018-12-10T09:25:24.667Z,7.27
2018-12-10T09:27:51.504Z,7.27
2018-12-10T09:30:19.068Z,7.33
2018-12-10T09:32:46.758Z,7.50
2018-12-10T09:35:14.328Z,7.61
2018-12-10T09:37:42.012Z,7.69
2018-12-10T09:40:10.298Z,7.86
2018-12-10T09:42:37.889Z,7.94
2018-12-10T09:45:06.633Z,7.98
2018-12-10T09:47:34.356Z,8.10
2018-12-10T09:50:02.032Z,8.27
2018-12-10T09:52:29.888Z,8.45
2018-12-10T09:54:57.419Z,8.63
2018-12-10T09:57:24.898Z,8.68
2018-12-10T09:59:52.486Z,8.63
2018-12-10T10:02:20.083Z,8.59
2018-12-10T10:04:47.820Z,8.73
2018-12-10T10:07:15.428Z,8.84
2018-12-10T10:09:43.086Z,8.93
2018-12-10T10:12:10.987Z,8.92
2018-12-10T10:14:38.877Z,8.92
2018-12-10T10:17:06.670Z,8.90
2018-12-10T10:19:34.338Z,8.88
2018-12-10T10:22:02.051Z,8.92
2018-12-10T10:24:29.940Z,9.04
2018-12-10T10:26:57.643Z,9.20
2018-12-10T10:29:25.330Z,9.11
2018-12-10T10:31:52.954Z,9.02
2018-12-10T10:34:20.671Z,8.95
2018-12-10T10:36:48.303Z,9.10
2018-12-10T10:39:15.702Z,9.21
2018-12-10T10:41:43.295Z,9.46
2018-12-10T10:44:11.154Z,9.50
2018-12-10T10:46:39.091Z,9.51
2018-12-10T10:49:06.676Z,9.47
2018-12-10T10:51:35.115Z,9.55
2018-12-10T10:54:03.073Z,9.61
2018-12-10T10:56:30.767Z,9.66
2018-12-10T10:58:58.539Z,9.82
2018-12-10T11:01:31.949Z,9.71
2018-12-10T11:03:59.714Z,9.41
2018-12-10T11:06:27.303Z,9.17
2018-12-10T11:08:54.948Z,9.13
2018-12-10T11:11:22.601Z,9.14
2018-12-10T11:13:50.336Z,9.13
2018-12-10T11:16:17.892Z,9.33
2018-12-10T11:18:45.672Z,9.42
2018-12-10T11:21:13.250Z,9.39
2018-12-10T11:23:40.870Z,9.50
2018-12-10T11:26:08.416Z,9.47
2018-12-10T11:28:36.116Z,9.27
2018-12-10T11:31:03.676Z,9.06
2018-12-10T11:33:31.400Z,9.12
2018-12-10T11:35:58.867Z,9.24
2018-12-10T11:38:26.471Z,9.38
2018-12-10T11:40:54.191Z,9.33
2018-12-10T11:43:22.025Z,9.18
2018-12-10T11:45:49.641Z,9.02
2018-12-10T11:48:17.511Z,9.01
2018-12-10T11:50:44.849Z,9.13
2018-12-10T11:53:12.657Z,9.34
2018-12-10T11:55:40.193Z,9.34
2018-12-10T11:58:07.773Z,9.39
2018-12-10T12:00:35.553Z,9.34
2018-12-10T12:03:03.273Z,9.36
2018-12-10T12:05:30.655Z,9.23
2018-12-10T12:07:58.135Z,8.99
2018-12-10T12:10:25.733Z,8.86
2018-12-10T12:12:53.055Z,8.85
2018-12-10T12:15:20.724Z,8.81
2018-12-10T12:17:49.045Z,8.83
2018-12-10T12:20:16.884Z,8.85
2018-12-10T12:22:44.518Z,8.94
2018-12-10T12:25:12.285Z,9.00
2018-12-10T12:27:39.929Z,9.23
2018-12-10T12:30:08.434Z,9.57
2018-12-10T12:32:36.046Z,9.69
2018-12-10T12:35:03.767Z,9.63
2018-12-10T12:37:31.559Z,9.63
2018-12-10T12:39:59.468Z,9.53
2018-12-10T12:42:27.153Z,9.39
2018-12-10T12:44:54.768Z,9.05
2018-12-10T12:47:22.482Z,8.93
2018-12-10T12:49:50.109Z,9.00
2018-12-10T12:52:17.722Z,9.00
2018-12-10T12:54:45.125Z,9.14
2018-12-10T12:57:12.797Z,9.32
2018-12-10T12:59:40.385Z,9.48
2018-12-10T13:02:08.081Z,9.53
2018-12-10T13:04:35.785Z,9.42
2018-12-10T13:07:03.486Z,9.26
2018-12-10T13:09:31.337Z,9.10
2018-12-10T13:11:58.942Z,9.02
2018-12-10T13:14:26.633Z,8.97
2018-12-10T13:16:54.242Z,8.82
2018-12-10T13:19:21.919Z,8.64
2018-12-10T13:21:49.581Z,8.52
2018-12-10T13:24:17.201Z,8.49
2018-12-10T13:26:44.875Z,8.52
2018-12-10T13:29:12.913Z,8.60
2018-12-10T13:31:40.402Z,8.69
2018-12-10T13:34:07.993Z,8.71
2018-12-10T13:36:35.561Z,8.60
2018-12-10T13:39:05.378Z,8.46
2018-12-10T13:41:32.781Z,8.50
2018-12-10T13:44:00.467Z,8.58
2018-12-10T13:46:28.106Z,8.46
2018-12-10T13:48:55.873Z,8.37
2018-12-10T13:51:23.490Z,8.36
2018-12-10T13:53:51.089Z,8.25
2018-12-10T13:56:18.915Z,8.16
2018-12-10T13:58:46.604Z,8.13
2018-12-10T14:01:14.344Z,8.07
2018-12-10T14:03:41.928Z,8.23
2018-12-10T14:06:09.608Z,8.17
2018-12-10T14:08:37.319Z,8.10
2018-12-10T14:11:04.980Z,8.10
2018-12-10T14:13:32.568Z,8.06
2018-12-10T14:16:00.315Z,7.94
2018-12-10T14:18:28.582Z,7.97
2018-12-10T14:20:56.085Z,7.86
2018-12-10T14:23:23.460Z,7.84
2018-12-10T14:25:51.206Z,7.72
2018-12-10T14:28:18.885Z,7.64
2018-12-10T14:30:46.675Z,7.59
2018-12-10T14:33:14.492Z,7.55
2018-12-10T14:35:42.005Z,7.48
2018-12-10T14:38:09.660Z,7.39
2018-12-10T14:40:38.461Z,7.32
2018-12-10T14:43:06.328Z,7.30
2018-12-10T14:45:33.786Z,7.29
2018-12-10T14:48:01.555Z,7.33
2018-12-10T14:50:30.455Z,7.29
2018-12-10T14:52:58.316Z,7.30
2018-12-10T14:55:26.068Z,7.27
2018-12-10T14:57:53.552Z,7.25
2018-12-10T15:00:20.932Z,7.27
2018-12-10T15:02:48.589Z,7.24
2018-12-10T15:05:16.053Z,7.23
2018-12-10T15:07:43.757Z,7.21
2018-12-10T15:10:11.276Z,7.18
2018-12-10T15:12:38.984Z,7.14
2018-12-10T15:15:09.749Z,7.07
2018-12-10T15:17:37.430Z,7.05
2018-12-10T15:20:11.742Z,6.96
2018-12-10T15:22:39.282Z,6.96
2018-12-10T15:25:07.892Z,6.92
2018-12-10T15:27:36.316Z,6.96
2018-12-10T15:30:06.516Z,6.90
2018-12-10T15:32:34.120Z,6.85
2018-12-10T15:35:01.796Z,6.94
2018-12-10T15:37:29.457Z,6.92
2018-12-10T15:39:57.226Z,6.93
2018-12-10T15:42:24.731Z,7.01
2018-12-10T15:44:52.331Z,6.93
2018-12-10T15:47:20.041Z,6.87
2018-12-10T15:49:47.660Z,6.88
2018-12-10T15:52:15.108Z,6.95
2018-12-10T15:54:42.646Z,6.90
2018-12-10T15:57:10.037Z,6.79
2018-12-10T15:59:37.795Z,6.79
2018-12-10T16:02:05.703Z,6.70
2018-12-10T16:04:34.134Z,6.71
2018-12-10T16:07:02.022Z,6.72
2018-12-10T16:09:29.661Z,6.68
2018-12-10T16:11:57.642Z,6.56
2018-12-10T16:14:25.353Z,6.42
2018-12-10T16:16:52.974Z,6.32
2018-12-10T16:19:20.736Z,6.07
2018-12-10T16:21:48.283Z,6.06
2018-12-10T16:24:16.104Z,5.84
2018-12-10T16:26:43.926Z,5.70
2018-12-10T16:29:11.657Z,5.46
2018-12-10T16:31:39.196Z,5.24
2018-12-10T16:34:06.624Z,5.11
2018-12-10T16:36:34.100Z,5.14
2018-12-10T16:39:01.564Z,5.17
2018-12-10T16:41:30.204Z,5.25
2018-12-10T16:43:57.896Z,5.24
2018-12-10T16:46:25.309Z,5.17
2018-12-10T16:48:52.933Z,5.04
2018-12-10T16:51:20.532Z,5.01
2018-12-10T16:53:48.400Z,4.86
2018-12-10T16:56:16.055Z,4.79
2018-12-10T16:58:43.669Z,4.98
2018-12-10T17:01:11.345Z,4.98
2018-12-10T17:03:38.954Z,4.87
2018-12-10T17:06:06.749Z,4.76
2018-12-10T17:08:34.344Z,4.85
2018-12-10T17:11:02.271Z,4.69
2018-12-10T17:13:30.311Z,4.58
2018-12-10T17:15:57.702Z,4.66
2018-12-10T17:18:25.599Z,4.66
2018-12-10T17:20:53.069Z,4.58
2018-12-10T17:23:20.739Z,4.54
2018-12-10T17:25:48.321Z,4.62
2018-12-10T17:28:16.121Z,4.56
2018-12-10T17:30:43.987Z,4.63
2018-12-10T17:33:11.697Z,4.70
2018-12-10T17:35:39.163Z,4.56
2018-12-10T17:38:06.814Z,4.43
2018-12-10T17:40:34.575Z,4.49
2018-12-10T17:43:02.247Z,4.45
2018-12-10T17:45:29.621Z,4.65
2018-12-10T17:47:57.543Z,4.70
2018-12-10T17:50:25.177Z,4.73
2018-12-10T17:52:52.816Z,4.64
2018-12-10T17:55:20.472Z,4.71
2018-12-10T17:57:48.289Z,4.74
2018-12-10T18:00:16.039Z,4.78
2018-12-10T18:02:43.599Z,4.73
2018-12-10T18:05:11.127Z,4.62
2018-12-10T18:07:38.545Z,4.46
2018-12-10T18:10:06.831Z,4.42
2018-12-10T18:12:34.463Z,4.52
2018-12-10T18:15:02.269Z,4.65
2018-12-10T18:17:32.989Z,4.76
2018-12-10T18:20:00.548Z,4.88
2018-12-10T18:22:28.067Z,4.98
2018-12-10T18:24:55.820Z,5.11
2018-12-10T18:27:23.415Z,5.19
2018-12-10T18:29:51.178Z,5.32
2018-12-10T18:32:18.876Z,5.45
2018-12-10T18:34:46.532Z,5.53
2018-12-10T18:37:14.090Z,5.54
2018-12-10T18:39:42.101Z,5.56
2018-12-10T18:42:09.779Z,5.65
2018-12-10T18:44:37.156Z,5.66
2018-12-10T18:47:04.688Z,5.59
2018-12-10T18:49:32.134Z,5.49
2018-12-10T18:51:59.834Z,5.42
2018-12-10T18:54:27.507Z,5.42
2018-12-10T18:56:55.038Z,5.53
2018-12-10T18:59:22.682Z,5.62
2018-12-10T19:01:50.531Z,5.53
2018-12-10T19:04:18.386Z,5.61
2018-12-10T19:06:46.041Z,5.31
2018-12-10T19:09:14.286Z,5.03
2018-12-10T19:11:42.052Z,4.83
2018-12-10T19:14:09.728Z,4.91
2018-12-10T19:16:37.982Z,4.88
2018-12-10T19:19:05.730Z,5.01
2018-12-10T19:21:33.549Z,5.15
2018-12-10T19:24:01.222Z,5.04
2018-12-10T19:26:28.868Z,4.89
2018-12-10T19:28:56.474Z,4.85
2018-12-10T19:31:24.103Z,4.73
2018-12-10T19:33:52.177Z,4.67
2018-12-10T19:36:19.565Z,4.60
2018-12-10T19:38:47.358Z,4.73
2018-12-10T19:41:14.998Z,4.75
2018-12-10T19:43:42.631Z,4.81
2018-12-10T19:46:10.417Z,4.89
2018-12-10T19:48:38.041Z,5.06
2018-12-10T19:51:05.776Z,5.27
2018-12-10T19:53:33.468Z,5.27
2018-12-10T19:56:01.057Z,5.35
2018-12-10T19:58:28.663Z,5.32
2018-12-10T20:00:56.326Z,5.57
2018-12-10T20:03:24.018Z,5.43
2018-12-10T20:05:57.712Z,5.16
2018-12-10T20:08:25.381Z,4.92
2018-12-10T20:10:53.360Z,4.86
2018-12-10T20:13:20.927Z,5.05
2018-12-10T20:15:48.671Z,4.99
2018-12-10T20:18:16.248Z,4.92
2018-12-10T20:20:43.745Z,4.77
2018-12-10T20:23:11.119Z,4.68
2018-12-10T20:25:38.729Z,4.66
2018-12-10T20:28:06.533Z,4.71
2018-12-10T20:30:34.239Z,4.63
2018-12-10T20:33:01.981Z,4.83
2018-12-10T20:35:29.490Z,4.78
2018-12-10T20:37:57.196Z,4.78
2018-12-10T20:40:24.812Z,4.70
2018-12-10T20:42:52.556Z,4.57
2018-12-10T20:45:20.272Z,4.59
2018-12-10T20:47:48.219Z,4.66
2018-12-10T20:50:16.130Z,4.60
2018-12-10T20:52:43.843Z,4.72
2018-12-10T20:55:12.972Z,4.72
2018-12-10T20:57:41.623Z,4.72
2018-12-10T21:00:09.765Z,4.87
2018-12-10T21:02:37.454Z,4.88
2018-12-10T21:05:05.100Z,4.94
2018-12-10T21:07:32.803Z,4.95
2018-12-10T21:10:00.493Z,5.00
2018-12-10T21:12:29.728Z,4.78
2018-12-10T21:15:00.453Z,4.60
2018-12-10T21:17:26.905Z,4.48
2018-12-10T21:19:54.575Z,4.58
2018-12-10T21:22:26.215Z,4.79
2018-12-10T21:24:57.180Z,5.05
2018-12-10T21:27:24.804Z,5.16
2018-12-10T21:29:53.624Z,5.28
2018-12-10T21:32:21.512Z,5.37
2018-12-10T21:34:48.985Z,5.32
2018-12-10T21:37:16.740Z,5.31
2018-12-10T21:39:44.354Z,5.41
2018-12-10T21:42:13.043Z,5.51
2018-12-10T21:44:40.698Z,5.53
2018-12-10T21:47:08.474Z,5.58
2018-12-10T21:49:36.072Z,5.46
2018-12-10T21:52:03.531Z,5.64
2018-12-10T21:54:31.157Z,5.65
2018-12-10T21:56:58.847Z,5.63
2018-12-10T21:59:26.589Z,5.74
2018-12-10T22:01:54.484Z,5.73
2018-12-10T22:04:22.084Z,5.62
2018-12-10T22:06:49.959Z,5.57
2018-12-10T22:09:17.712Z,5.63
2018-12-10T22:11:45.447Z,5.59
2018-12-10T22:14:13.153Z,5.39
2018-12-10T22:16:41.213Z,5.51
2018-12-10T22:19:09.287Z,5.53
2018-12-10T22:21:36.919Z,5.50
2018-12-10T22:24:04.635Z,5.47
2018-12-10T22:26:32.458Z,5.37
2018-12-10T22:29:00.076Z,5.17
2018-12-10T22:31:27.888Z,5.36
2018-12-10T22:33:55.641Z,5.31
2018-12-10T22:36:23.300Z,5.38
2018-12-10T22:38:50.837Z,5.50
2018-12-10T22:41:18.437Z,5.52
2018-12-10T22:43:46.005Z,5.38
2018-12-10T22:46:13.625Z,5.24
2018-12-10T22:48:41.413Z,5.02
2018-12-10T22:51:09.035Z,5.17
2018-12-10T22:53:36.623Z,5.21
2018-12-10T22:56:04.277Z,5.34
2018-12-10T22:58:31.976Z,5.35
2018-12-10T23:00:59.847Z,5.28
2018-12-10T23:03:27.321Z,5.36
2018-12-10T23:05:54.708Z,5.22
2018-12-10T23:08:22.327Z,5.30
2018-12-10T23:10:50.020Z,5.49
2018-12-10T23:13:17.605Z,5.45
2018-12-10T23:15:44.987Z,5.55
2018-12-10T23:18:12.569Z,5.52
2018-12-10T23:20:39.921Z,5.51
2018-12-10T23:23:07.634Z,5.51
2018-12-10T23:25:35.259Z,5.50
2018-12-10T23:28:03.104Z,5.64
2018-12-10T23:30:30.854Z,5.74
2018-12-10T23:32:59.330Z,5.67
2018-12-10T23:35:27.104Z,5.79
2018-12-10T23:37:54.704Z,5.79
2018-12-10T23:40:22.516Z,5.82
2018-12-10T23:42:55.762Z,5.91
2018-12-10T23:45:23.636Z,5.77
2018-12-10T23:47:51.223Z,5.81
2018-12-10T23:50:18.845Z,5.75
2018-12-10T23:52:46.436Z,5.67
2018-12-10T23:55:13.931Z,5.51
2018-12-10T23:57:41.477Z,5.19
